Time;durP1;ratioP1;P1;durP2;ratioP2;P2;SDS_P1;SDS_P2;PMS_P1;PMS_P2;Temp;Humidity;BMP_temperature;BMP_pressure;BME280_temperature;BME280_humidity;BME280_pressure;Samples;Min_cycle;Max_cycle;Signal;HPM_P1;HPM_P2
2022/10/28 00:01:34;;;;;;;;;;;;;;;14.20;100.00;99877.22;8304316;28;19999;-78
2022/10/28 00:05:35;;;;;;;;;;;;;;;14.23;100.00;99867.63;8307733;28;20027;-77
2022/10/28 00:09:36;;;;;;;;;;;;;;;14.21;100.00;99865.03;8314118;28;19929;-78
2022/10/28 00:13:38;;;;;;;;;;;;;;;14.21;100.00;99870.25;8314810;28;19929;-78
2022/10/28 00:17:40;;;;;;;;;;;;;;;14.23;100.00;99875.47;8306071;28;20286;-78
2022/10/28 00:21:42;;;;;;;;;;;;;;;14.23;100.00;99868.50;8303438;28;19937;-78
2022/10/28 00:25:44;;;;;;;;;;;;;;;14.25;100.00;99861.50;8307487;28;20238;-78
2022/10/28 00:29:45;;;;;;;;;;;;;;;14.24;100.00;99856.28;8304475;28;19929;-78
2022/10/28 00:33:48;;;;;;;;;;;;;;;14.22;100.00;99853.69;8327220;28;19940;-78
2022/10/28 00:37:51;;;;;;;;;;;;;;;14.21;100.00;99849.38;8321962;28;19933;-78
2022/10/28 00:41:55;;;;;;;;;;;;;;;14.22;100.00;99853.69;8304408;28;19929;-78
2022/10/28 00:45:56;;;;;;;;;;;;;;;14.22;100.00;99843.25;8322299;28;19998;-78
2022/10/28 00:50:16;;;;;;;;;;;;;;;14.24;100.00;99832.78;8307421;28;19984;-78
2022/10/28 00:54:18;;;;;;;;;;;;;;;14.20;100.00;99830.22;8311665;28;19929;-78
2022/10/28 00:58:21;;;;;;;;;;;;;;;14.20;100.00;99822.38;8311231;28;19983;-78
2022/10/28 01:02:23;;;;;;;;;;;;;;;14.21;100.00;99811.03;8310522;28;20263;-78
2022/10/28 01:06:25;;;;;;;;;;;;;;;14.20;100.00;99801.50;8306887;28;19933;-78
2022/10/28 01:10:39;;;;;;;;;;;;;;;14.19;100.00;99802.38;8320968;28;20616;-78
2022/10/28 01:14:53;;;;;;;;;;;;;;;14.18;100.00;99787.59;8296843;28;19992;-78
2022/10/28 01:19:04;;;;;;;;;;;;;;;14.19;100.00;99786.69;8303566;28;19986;-78
2022/10/28 01:23:13;;;;;;;;;;;;;;;14.19;100.00;99781.47;8306879;28;20583;-78
2022/10/28 01:27:39;;;;;;;;;;;;;;;14.20;100.00;99769.28;8291098;28;20316;-78
2022/10/28 01:31:48;;;;;;;;;;;;;;;14.18;100.00;99774.53;8300993;28;20235;-78
2022/10/28 01:35:56;;;;;;;;;;;;;;;14.18;100.00;99774.53;8315980;28;19963;-78
2022/10/28 01:40:16;;;;;;;;;;;;;;;14.18;100.00;99787.59;8315642;28;19956;-78
2022/10/28 01:44:41;;;;;;;;;;;;;;;14.22;100.00;99783.19;8306943;28;19929;-78
2022/10/28 01:48:52;;;;;;;;;;;;;;;14.30;100.00;99793.53;8314793;28;19933;-78
2022/10/28 01:52:56;;;;;;;;;;;;;;;14.33;100.00;99790.84;8305775;28;20357;-78
2022/10/28 01:56:59;;;;;;;;;;;;;;;14.33;100.00;99781.28;8309270;28;19982;-78
2022/10/28 02:01:04;;;;;;;;;;;;;;;14.30;100.00;99781.31;8317171;28;20305;-78
2022/10/28 02:05:25;;;;;;;;;;;;;;;14.30;100.00;99783.94;8296695;28;20036;-78
2022/10/28 02:09:49;;;;;;;;;;;;;;;14.31;100.00;99783.03;8321465;28;20440;-78
2022/10/28 02:13:56;;;;;;;;;;;;;;;14.32;100.00;99781.28;8314662;28;19939;-78
2022/10/28 02:18:03;;;;;;;;;;;;;;;14.32;100.00;99776.94;8299551;28;19930;-78
2022/10/28 02:22:20;;;;;;;;;;;;;;;14.31;100.00;99776.97;8270637;28;20059;-78
2022/10/28 02:26:35;;;;;;;;;;;;;;;14.29;100.00;99771.75;8283692;28;19929;-78
2022/10/28 02:30:48;;;;;;;;;;;;;;;14.32;100.00;99770.84;8286908;28;19961;-78
2022/10/28 02:34:52;;;;;;;;;;;;;;;14.31;100.00;99769.97;8321918;28;20055;-78
2022/10/28 02:38:55;;;;;;;;;;;;;;;14.26;100.00;99771.81;8319516;28;19948;-77
2022/10/28 02:42:58;;;;;;;;;;;;;;;14.23;100.00;99769.25;8296067;28;19941;-78
2022/10/28 02:47:04;;;;;;;;;;;;;;;14.16;100.00;99770.19;8296982;28;19963;-78
2022/10/28 02:51:10;;;;;;;;;;;;;;;14.07;100.00;99767.69;8307411;28;19937;-78
2022/10/28 02:55:11;;;;;;;;;;;;;;;14.02;100.00;99767.78;8314904;28;20256;-78
2022/10/28 02:59:12;;;;;;;;;;;;;;;13.94;100.00;99769.59;8314950;28;19929;-78
2022/10/28 03:03:14;;;;;;;;;;;;;;;13.88;100.00;99761.84;8309023;28;20317;-78
2022/10/28 03:07:15;;;;;;;;;;;;;;;13.82;100.00;99764.50;8297806;28;19939;-78
2022/10/28 03:11:19;;;;;;;;;;;;;;;13.71;100.00;99764.66;8319286;28;19991;-78
2022/10/28 03:15:20;;;;;;;;;;;;;;;13.65;100.00;99763.84;8314120;28;19959;-78
2022/10/28 03:19:22;;;;;;;;;;;;;;;13.59;100.00;99754.31;8312183;28;19937;-78
2022/10/28 03:23:23;;;;;;;;;;;;;;;13.54;100.00;99754.38;8327436;28;19929;-78
2022/10/28 03:27:25;;;;;;;;;;;;;;;13.52;100.00;99753.53;8283918;28;19930;-78
2022/10/28 03:31:26;;;;;;;;;;;;;;;13.50;100.00;99750.09;8311366;28;20365;-78
2022/10/28 03:35:27;;;;;;;;;;;;;;;13.52;100.00;99761.38;8299702;28;19925;-78
2022/10/28 03:39:29;;;;;;;;;;;;;;;13.49;100.00;99750.97;8311912;28;19925;-78
2022/10/28 03:43:30;;;;;;;;;;;;;;;13.50;100.00;99751.84;8309691;28;19929;-78
2022/10/28 03:47:32;;;;;;;;;;;;;;;13.52;100.00;99745.72;8308872;28;19930;-78
2022/10/28 03:51:34;;;;;;;;;;;;;;;13.57;100.00;99740.44;8329641;28;19933;-78
2022/10/28 03:55:35;;;;;;;;;;;;;;;13.57;100.00;99735.22;8308770;28;19937;-78
2022/10/28 03:59:36;;;;;;;;;;;;;;;13.59;100.00;99723.88;8295416;28;19929;-78
2022/10/28 04:03:38;;;;;;;;;;;;;;;13.58;100.00;99723.91;8302127;28;20006;-78
2022/10/28 04:07:39;;;;;;;;;;;;;;;13.60;100.00;99724.75;8309999;28;19929;-78
2022/10/28 04:11:41;;;;;;;;;;;;;;;13.61;100.00;99721.25;8312287;28;19930;-78
2022/10/28 04:15:42;;;;;;;;;;;;;;;13.57;100.00;99725.66;8304735;28;19929;-78
2022/10/28 04:19:44;;;;;;;;;;;;;;;13.56;100.00;99728.28;8305007;28;19925;-78
2022/10/28 04:23:45;;;;;;;;;;;;;;;13.53;100.00;99730.94;8331026;28;19931;-78
2022/10/28 04:27:46;;;;;;;;;;;;;;;13.51;100.00;99736.16;8301173;28;19933;-78
2022/10/28 04:31:48;;;;;;;;;;;;;;;13.50;100.00;99741.41;8293906;28;20350;-78
2022/10/28 04:35:52;;;;;;;;;;;;;;;13.48;100.00;99743.16;8307494;28;19929;-78
2022/10/28 04:39:53;;;;;;;;;;;;;;;13.45;100.00;99746.63;8308593;28;19937;-78
2022/10/28 04:43:55;;;;;;;;;;;;;;;13.44;100.00;99744.91;8312542;28;20489;-78
2022/10/28 04:47:58;;;;;;;;;;;;;;;13.45;100.00;99744.03;8291200;28;19952;-78
2022/10/28 04:51:59;;;;;;;;;;;;;;;13.43;100.00;99752.75;8290069;28;19929;-78
2022/10/28 04:56:00;;;;;;;;;;;;;;;13.39;100.00;99743.25;8278601;28;19991;-78
2022/10/28 05:00:03;;;;;;;;;;;;;;;13.35;100.00;99757.19;8281992;28;19945;-78
2022/10/28 05:04:04;;;;;;;;;;;;;;;13.32;100.00;99755.50;8288329;28;19925;-78
2022/10/28 05:08:05;;;;;;;;;;;;;;;13.28;100.00;99753.78;8308947;28;19933;-78
2022/10/28 05:12:07;;;;;;;;;;;;;;;13.25;100.00;99748.59;8308862;28;19940;-78
2022/10/28 05:16:08;;;;;;;;;;;;;;;13.23;100.00;99745.13;8295924;28;19929;-78
2022/10/28 05:20:10;;;;;;;;;;;;;;;13.21;100.00;99758.19;8288978;28;20412;-79
2022/10/28 05:24:12;;;;;;;;;;;;;;;13.17;100.00;99748.63;8308685;28;19987;-79
2022/10/28 05:28:13;;;;;;;;;;;;;;;13.17;100.00;99739.94;8306736;28;20779;-79
2022/10/28 05:32:15;;;;;;;;;;;;;;;13.14;100.00;99742.59;8309789;28;19940;-78
2022/10/28 05:36:16;;;;;;;;;;;;;;;13.11;100.00;99733.06;8314650;28;19932;-78
2022/10/28 05:40:17;;;;;;;;;;;;;;;13.09;100.00;99736.53;8305267;28;19933;-79
2022/10/28 05:44:19;;;;;;;;;;;;;;;13.11;100.00;99737.41;8302875;28;19940;-79
2022/10/28 05:48:20;;;;;;;;;;;;;;;13.12;100.00;99731.31;8307639;28;19930;-79
2022/10/28 05:52:22;;;;;;;;;;;;;;;13.14;100.00;99726.94;8303629;28;20232;-79
2022/10/28 05:56:23;;;;;;;;;;;;;;;13.14;100.00;99730.41;8300373;28;19925;-79
2022/10/28 06:00:25;;;;;;;;;;;;;;;13.11;100.00;99738.28;8301234;28;19936;-80
2022/10/28 06:04:26;;;;;;;;;;;;;;;13.06;100.00;99747.00;8311030;28;19929;-80
2022/10/28 06:08:27;;;;;;;;;;;;;;;13.01;100.00;99739.22;8311859;28;20077;-80
2022/10/28 06:12:29;;;;;;;;;;;;;;;12.97;100.00;99747.94;8306938;28;19936;-79
2022/10/28 06:16:30;;;;;;;;;;;;;;;13.02;100.00;99746.16;8314865;28;19994;-79
2022/10/28 06:20:32;;;;;;;;;;;;;;;13.08;100.00;99747.84;8305475;28;19929;-79
2022/10/28 06:24:33;;;;;;;;;;;;;;;13.19;100.00;99754.72;8306508;28;19933;-80
2022/10/28 06:28:34;;;;;;;;;;;;;;;13.43;100.00;99747.53;8305174;28;19933;-79
2022/10/28 06:32:36;;;;;;;;;;;;;;;13.59;100.00;99760.41;8297686;28;19985;-80
2022/10/28 06:36:38;;;;;;;;;;;;;;;13.71;100.00;99766.38;8318987;28;20728;-80
2022/10/28 06:40:39;;;;;;;;;;;;;;;13.73;100.00;99762.88;8323152;28;19991;-79
2022/10/28 06:44:40;;;;;;;;;;;;;;;13.78;100.00;99766.28;8326213;28;19929;-80
2022/10/28 06:48:42;;;;;;;;;;;;;;;13.81;100.00;99761.03;8310038;28;19929;-79
2022/10/28 06:52:43;;;;;;;;;;;;;;;13.84;100.00;99763.63;8314852;28;19925;-79
2022/10/28 06:56:49;;;;;;;;;;;;;;;13.86;100.00;99767.09;8314236;28;19968;-79
2022/10/28 07:00:51;;;;;;;;;;;;;;;13.89;100.00;99769.66;8314287;28;19929;-80
2022/10/28 07:04:52;;;;;;;;;;;;;;;13.92;100.00;99781.81;8318914;28;19929;-80
2022/10/28 07:08:54;;;;;;;;;;;;;;;13.95;100.00;99783.50;8314703;28;19926;-80
2022/10/28 07:12:55;;;;;;;;;;;;;;;14.02;100.00;99787.78;8309446;28;19928;-80
2022/10/28 07:16:57;;;;;;;;;;;;;;;14.10;100.00;99786.81;8294572;28;19933;-80
2022/10/28 07:20:59;;;;;;;;;;;;;;;14.14;100.00;99783.25;8310238;28;19929;-80
2022/10/28 07:25:00;;;;;;;;;;;;;;;14.18;100.00;99791.91;8309978;28;19929;-80
2022/10/28 07:29:01;;;;;;;;;;;;;;;14.21;100.00;99799.75;8312844;28;20421;-80
2022/10/28 07:33:04;;;;;;;;;;;;;;;14.26;100.00;99797.91;8312480;28;19929;-80
2022/10/28 07:37:05;;;;;;;;;;;;;;;14.35;100.00;99808.25;8310776;28;19925;-80
2022/10/28 07:41:08;;;;;;;;;;;;;;;14.46;100.00;99805.53;8307764;28;19929;-80
2022/10/28 07:45:10;;;;;;;;;;;;;;;14.54;100.00;99795.81;8300527;28;20002;-80
2022/10/28 07:49:11;;;;;;;;;;;;;;;14.62;100.00;99795.72;8295618;28;20228;-80
2022/10/28 07:53:13;;;;;;;;;;;;;;;14.69;100.00;99794.75;8305144;28;20003;-80
2022/10/28 07:57:19;;;;;;;;;;;;;;;14.74;100.00;99795.56;8321852;28;20357;-80
2022/10/28 08:01:21;;;;;;;;;;;;;;;14.80;99.99;99785.88;8314891;28;19929;-80
2022/10/28 08:05:22;;;;;;;;;;;;;;;14.98;99.25;99803.03;8307265;28;20842;-80
2022/10/28 08:09:24;;;;;;;;;;;;;;;15.32;98.12;99798.09;8284423;28;19929;-80
2022/10/28 08:13:25;;;;;;;;;;;;;;;15.69;97.01;99806.19;8310809;28;19925;-80
2022/10/28 08:17:28;;;;;;;;;;;;;;;16.05;95.46;99809.00;8291645;28;19938;-80
2022/10/28 08:21:29;;;;;;;;;;;;;;;16.49;92.74;99807.19;8291532;28;19995;-80
2022/10/28 08:25:30;;;;;;;;;;;;;;;16.98;89.95;99808.75;8313823;28;20239;-80
2022/10/28 08:29:32;;;;;;;;;;;;;;;17.41;88.14;99801.53;8308781;28;19937;-80
2022/10/28 08:33:35;;;;;;;;;;;;;;;17.86;86.61;99803.88;8308257;28;20017;-80
2022/10/28 08:37:36;;;;;;;;;;;;;;;18.20;82.38;99819.56;8316014;28;19929;-80
2022/10/28 08:41:56;;;;;;;;;;;;;;;18.55;81.30;99815.91;8312747;28;19933;-80
2022/10/28 08:46:02;;;;;;;;;;;;;;;18.74;79.65;99807.50;8308799;28;20278;-80
2022/10/28 08:50:10;;;;;;;;;;;;;;;18.94;73.85;99810.34;8308363;28;20090;-80
2022/10/28 08:54:15;;;;;;;;;;;;;;;19.17;71.22;99802.56;8307768;28;19959;-80
2022/10/28 08:58:29;;;;;;;;;;;;;;;19.35;73.33;99805.50;8314427;28;19947;-80
2022/10/28 09:02:38;;;;;;;;;;;;;;;19.47;72.19;99800.69;8306366;28;19925;-80
2022/10/28 09:06:39;;;;;;;;;;;;;;;19.64;73.73;99808.03;8298822;28;19925;-80
2022/10/28 09:10:48;;;;;;;;;;;;;;;19.83;71.94;99803.84;8308958;28;19957;-80
2022/10/28 09:15:08;;;;;;;;;;;;;;;20.01;74.17;99796.19;8310662;28;20764;-80
2022/10/28 09:19:18;;;;;;;;;;;;;;;20.22;73.92;99798.91;8312468;28;19961;-80
2022/10/28 09:23:22;;;;;;;;;;;;;;;20.56;70.46;99796.78;8311938;28;19940;-80
2022/10/28 09:27:42;;;;;;;;;;;;;;;20.90;67.00;99802.47;8306788;28;19935;-80
2022/10/28 09:31:51;;;;;;;;;;;;;;;21.24;66.54;99809.00;8307671;28;20320;-80
2022/10/28 09:35:53;;;;;;;;;;;;;;;21.51;63.64;99804.38;8310176;28;20020;-80
2022/10/28 09:40:14;;;;;;;;;;;;;;;21.77;63.62;99809.41;8320549;28;19991;-80
2022/10/28 09:44:19;;;;;;;;;;;;;;;21.92;64.43;99807.91;8314081;28;19925;-81
2022/10/28 09:48:23;;;;;;;;;;;;;;;22.08;60.92;99823.94;8310737;28;19995;-80
2022/10/28 09:52:28;;;;;;;;;;;;;;;22.31;60.19;99813.22;8307315;28;20500;-80
2022/10/28 09:56:30;;;;;;;;;;;;;;;22.43;61.42;99811.75;8314051;28;19925;-80
2022/10/28 10:00:31;;;;;;;;;;;;;;;22.55;60.57;99827.09;8309283;28;19995;-80
2022/10/28 10:04:34;;;;;;;;;;;;;;;22.63;59.94;99837.34;8310823;28;21441;-80
2022/10/28 10:08:36;;;;;;;;;;;;;;;22.72;59.67;99823.66;8320217;28;20015;-80
2022/10/28 10:12:38;;;;;;;;;;;;;;;22.74;58.02;99813.84;8330358;28;20354;-80
2022/10/28 10:17:02;;;;;;;;;;;;;;;22.83;58.27;99824.91;8289410;28;19956;-80
2022/10/28 10:21:05;;;;;;;;;;;;;;;22.96;56.94;99832.25;8306361;28;19937;-80
2022/10/28 10:25:18;;;;;;;;;;;;;;;23.07;56.21;99827.28;8318856;28;19925;-80
2022/10/28 10:29:20;;;;;;;;;;;;;;;23.21;54.70;99836.28;8295628;28;19935;-80
2022/10/28 10:33:27;;;;;;;;;;;;;;;23.18;53.15;99835.59;8326950;28;20068;-80
2022/10/28 10:37:32;;;;;;;;;;;;;;;23.25;54.92;99826.38;8306086;28;19935;-80
2022/10/28 10:41:40;;;;;;;;;;;;;;;23.37;54.46;99812.53;8310663;28;19926;-80
2022/10/28 10:46:00;;;;;;;;;;;;;;;23.41;52.64;99815.88;8298062;28;20025;-80
2022/10/28 10:50:20;;;;;;;;;;;;;;;23.51;53.56;99811.81;8311273;28;19955;-80
2022/10/28 10:54:24;;;;;;;;;;;;;;;23.60;52.17;99805.25;8309220;28;19939;-80
2022/10/28 10:58:27;;;;;;;;;;;;;;;23.66;51.66;99795.16;8306022;28;19933;-80
2022/10/28 11:02:40;;;;;;;;;;;;;;;23.76;51.77;99799.06;8307507;28;19935;-80
2022/10/28 11:06:43;;;;;;;;;;;;;;;23.75;50.93;99807.97;8329889;28;20024;-80
2022/10/28 11:11:01;;;;;;;;;;;;;;;23.80;51.94;99808.56;8336938;28;19939;-80
2022/10/28 11:15:19;;;;;;;;;;;;;;;23.87;51.25;99810.88;8303808;28;19925;-80
2022/10/28 11:19:31;;;;;;;;;;;;;;;23.87;49.71;99803.78;8330931;28;19939;-80
2022/10/28 11:23:53;;;;;;;;;;;;;;;23.80;50.98;99791.81;8295860;28;19936;-79
2022/10/28 11:28:09;;;;;;;;;;;;;;;23.75;51.59;99783.25;8308770;28;20033;-79
2022/10/28 11:32:28;;;;;;;;;;;;;;;23.61;49.41;99785.75;8310461;28;19929;-80
2022/10/28 11:36:30;;;;;;;;;;;;;;;23.59;51.75;99784.97;8326369;28;20020;-80
2022/10/28 11:40:54;;;;;;;;;;;;;;;23.65;50.82;99789.94;8294771;28;19929;-80
2022/10/28 11:45:07;;;;;;;;;;;;;;;23.81;51.43;99786.41;8304080;28;20676;-80
2022/10/28 11:49:28;;;;;;;;;;;;;;;23.97;51.96;99785.59;8298401;28;19929;-80
2022/10/28 11:53:29;;;;;;;;;;;;;;;24.09;50.80;99777.88;8310105;28;19929;-80
2022/10/28 11:57:45;;;;;;;;;;;;;;;24.15;50.65;99765.19;8305214;28;20391;-80
2022/10/28 12:02:02;;;;;;;;;;;;;;;24.23;49.81;99765.63;8306497;28;20390;-80
2022/10/28 12:06:15;;;;;;;;;;;;;;;24.14;49.25;99764.34;8335834;28;19926;-80
2022/10/28 12:10:41;;;;;;;;;;;;;;;24.11;49.62;99753.91;8311458;28;19929;-80
2022/10/28 12:14:48;;;;;;;;;;;;;;;24.20;50.86;99742.75;8303016;28;19933;-80
2022/10/28 12:18:53;;;;;;;;;;;;;;;24.23;50.74;99745.25;8309475;28;19994;-80
2022/10/28 12:22:57;;;;;;;;;;;;;;;24.23;48.98;99749.69;8302672;28;20351;-80
2022/10/28 12:27:01;;;;;;;;;;;;;;;24.30;49.99;99748.47;8315860;28;19936;-80
2022/10/28 12:31:06;;;;;;;;;;;;;;;24.34;49.65;99753.53;8309973;28;19932;-79
2022/10/28 12:35:16;;;;;;;;;;;;;;;24.44;50.17;99761.00;8298849;28;19940;-80
2022/10/28 12:39:26;;;;;;;;;;;;;;;24.55;50.31;99745.28;8303779;28;19937;-80
2022/10/28 12:43:32;;;;;;;;;;;;;;;24.64;50.02;99752.75;8303574;28;20273;-79
2022/10/28 12:47:41;;;;;;;;;;;;;;;24.68;51.10;99746.31;8305615;28;20404;-79
2022/10/28 12:51:43;;;;;;;;;;;;;;;24.65;49.17;99759.78;8317710;28;19975;-79
2022/10/28 12:55:49;;;;;;;;;;;;;;;24.68;50.21;99755.16;8321919;28;20011;-80
2022/10/28 12:59:58;;;;;;;;;;;;;;;24.70;50.18;99747.94;8313181;28;19929;-80
2022/10/28 13:04:00;;;;;;;;;;;;;;;24.65;49.68;99741.19;8320983;28;19933;-80
2022/10/28 13:08:09;;;;;;;;;;;;;;;24.61;49.36;99747.63;8316253;28;20024;-79
2022/10/28 13:12:16;;;;;;;;;;;;;;;24.51;49.54;99741.97;8312814;28;19987;-79
2022/10/28 13:16:30;;;;;;;;;;;;;;;24.44;51.23;99735.31;8322941;28;19995;-79
2022/10/28 13:20:58;;;;;;;;;;;;;;;24.39;49.36;99739.97;8316110;28;20338;-79
2022/10/28 13:24:59;;;;;;;;;;;;;;;24.39;49.64;99739.97;8329172;28;20396;-79
2022/10/28 13:29:03;;;;;;;;;;;;;;;24.31;48.99;99739.56;8290333;28;19961;-79
2022/10/28 13:33:06;;;;;;;;;;;;;;;24.21;48.07;99748.94;8297612;28;20328;-80
2022/10/28 13:37:17;;;;;;;;;;;;;;;24.06;48.50;99750.66;8312588;28;19929;-79
2022/10/28 13:41:27;;;;;;;;;;;;;;;23.95;49.08;99753.84;8307425;28;19939;-76
2022/10/28 13:45:47;;;;;;;;;;;;;;;23.87;51.12;99752.53;8298242;28;19986;-76
2022/10/28 13:50:06;;;;;;;;;;;;;;;23.83;52.06;99738.59;8309495;28;19999;-75
2022/10/28 13:54:22;;;;;;;;;;;;;;;23.77;52.89;99746.88;8305210;28;19930;-75
2022/10/28 13:58:25;;;;;;;;;;;;;;;23.76;53.20;99746.03;8303888;28;19937;-75
2022/10/28 14:02:28;;;;;;;;;;;;;;;23.73;53.52;99745.34;8300569;28;20023;-75
2022/10/28 14:06:37;;;;;;;;;;;;;;;23.68;54.04;99736.75;8308885;28;19933;-75
2022/10/28 14:10:38;;;;;;;;;;;;;;;23.64;52.22;99730.75;8307275;28;19925;-75
2022/10/28 14:14:51;;;;;;;;;;;;;;;23.69;51.49;99747.28;8307423;28;19948;-76
2022/10/28 14:18:59;;;;;;;;;;;;;;;23.75;52.83;99740.81;8321126;28;19937;-75
2022/10/28 14:23:20;;;;;;;;;;;;;;;23.75;52.74;99744.31;8306959;28;19929;-75
2022/10/28 14:27:29;;;;;;;;;;;;;;;23.74;52.73;99741.75;8307354;28;19928;-76
2022/10/28 14:31:36;;;;;;;;;;;;;;;23.67;52.31;99745.63;8294321;28;20670;-76
2022/10/28 14:35:41;;;;;;;;;;;;;;;23.54;52.53;99749.84;8287798;28;19936;-75
2022/10/28 14:39:50;;;;;;;;;;;;;;;23.40;52.85;99746.13;8310616;28;19960;-75
2022/10/28 14:44:13;;;;;;;;;;;;;;;23.32;53.36;99758.88;8320444;28;20309;-75
2022/10/28 14:48:28;;;;;;;;;;;;;;;23.23;53.57;99754.06;8320518;28;20876;-75
2022/10/28 14:52:32;;;;;;;;;;;;;;;23.13;53.59;99760.75;8322368;28;20591;-75
2022/10/28 14:56:34;;;;;;;;;;;;;;;23.05;54.46;99757.63;8300479;28;19929;-75
2022/10/28 15:00:38;;;;;;;;;;;;;;;22.98;56.32;99764.16;8315810;28;20376;-75
2022/10/28 15:04:40;;;;;;;;;;;;;;;22.89;56.74;99761.03;8310346;28;19929;-75
2022/10/28 15:08:42;;;;;;;;;;;;;;;22.76;56.30;99753.72;8307368;28;20056;-75
2022/10/28 15:12:44;;;;;;;;;;;;;;;22.68;56.13;99762.06;8312867;28;19987;-75
2022/10/28 15:16:47;;;;;;;;;;;;;;;22.57;56.88;99769.63;8297249;28;19929;-76
2022/10/28 15:20:48;;;;;;;;;;;;;;;22.43;58.38;99765.00;8309511;28;20371;-75
2022/10/28 15:25:00;;;;;;;;;;;;;;;22.31;59.62;99758.50;8307261;28;20445;-76
2022/10/28 15:29:02;;;;;;;;;;;;;;;22.15;61.05;99754.00;8304751;28;19940;-75
2022/10/28 15:33:17;;;;;;;;;;;;;;;22.06;60.16;99754.41;8302348;28;19987;-75
2022/10/28 15:37:20;;;;;;;;;;;;;;;21.88;61.47;99754.25;8307773;28;19979;-76
2022/10/28 15:41:21;;;;;;;;;;;;;;;21.79;61.14;99749.41;8304583;28;19980;-76
2022/10/28 15:45:27;;;;;;;;;;;;;;;21.67;61.92;99763.16;8297733;28;20906;-76
2022/10/28 15:49:33;;;;;;;;;;;;;;;21.48;63.52;99776.31;8306030;28;19929;-76
2022/10/28 15:53:38;;;;;;;;;;;;;;;21.31;64.37;99786.72;8303996;28;19934;-76
2022/10/28 15:57:47;;;;;;;;;;;;;;;21.18;64.77;99788.97;8298696;28;19929;-75
2022/10/28 16:01:48;;;;;;;;;;;;;;;20.96;65.81;99799.56;8295966;28;19929;-75
2022/10/28 16:05:50;;;;;;;;;;;;;;;20.70;67.12;99795.34;8305825;28;19932;-76
2022/10/28 16:09:52;;;;;;;;;;;;;;;20.48;68.84;99799.72;8302627;28;19936;-75
2022/10/28 16:13:53;;;;;;;;;;;;;;;20.28;68.96;99795.16;8302184;28;19937;-76
2022/10/28 16:17:55;;;;;;;;;;;;;;;20.14;68.93;99806.25;8287770;28;19937;-75
2022/10/28 16:21:57;;;;;;;;;;;;;;;20.06;68.70;99805.66;8305885;28;19929;-77
2022/10/28 16:25:59;;;;;;;;;;;;;;;19.88;69.61;99812.44;8304852;28;19937;-77
2022/10/28 16:30:00;;;;;;;;;;;;;;;19.87;68.06;99818.63;8306091;28;20472;-77
2022/10/28 16:34:01;;;;;;;;;;;;;;;19.82;69.02;99817.94;8307858;28;20580;-77
2022/10/28 16:38:08;;;;;;;;;;;;;;;19.75;69.93;99820.81;8306322;28;19933;-77
2022/10/28 16:42:09;;;;;;;;;;;;;;;19.53;70.94;99816.28;8310230;28;19995;-77
2022/10/28 16:46:12;;;;;;;;;;;;;;;19.50;70.86;99820.78;8307250;28;20332;-78
2022/10/28 16:50:14;;;;;;;;;;;;;;;19.37;71.83;99820.31;8309741;28;19928;-78
2022/10/28 16:54:16;;;;;;;;;;;;;;;19.20;72.71;99823.53;8301661;28;19987;-77
2022/10/28 16:58:17;;;;;;;;;;;;;;;19.09;73.00;99828.28;8308333;28;20611;-78
2022/10/28 17:02:25;;;;;;;;;;;;;;;18.94;74.39;99832.25;8300847;28;20633;-77
2022/10/28 17:06:26;;;;;;;;;;;;;;;18.84;74.68;99835.22;8304791;28;20529;-77
2022/10/28 17:10:28;;;;;;;;;;;;;;;18.72;75.70;99831.22;8305105;28;20473;-78
2022/10/28 17:14:29;;;;;;;;;;;;;;;18.52;76.99;99830.94;8307329;28;19983;-77
2022/10/28 17:18:30;;;;;;;;;;;;;;;18.36;78.08;99839.25;8306284;28;19951;-78
2022/10/28 17:22:32;;;;;;;;;;;;;;;18.23;78.56;99834.38;8308794;28;19930;-77
2022/10/28 17:26:34;;;;;;;;;;;;;;;18.11;78.91;99846.09;8292067;28;20023;-77
2022/10/28 17:30:35;;;;;;;;;;;;;;;18.15;78.72;99836.38;8304239;28;19934;-77
2022/10/28 17:34:37;;;;;;;;;;;;;;;18.02;79.46;99839.34;8298508;28;20350;-77
2022/10/28 17:38:38;;;;;;;;;;;;;;;17.85;80.44;99835.44;8313076;28;20323;-77
2022/10/28 17:42:39;;;;;;;;;;;;;;;17.73;81.41;99853.25;8308260;28;20316;-76
2022/10/28 17:46:40;;;;;;;;;;;;;;;17.61;81.95;99852.69;8299823;28;19991;-76
2022/10/28 17:50:43;;;;;;;;;;;;;;;17.48;82.54;99860.00;8299166;28;19960;-76
2022/10/28 17:54:44;;;;;;;;;;;;;;;17.37;83.10;99865.50;8315022;28;19994;-76
2022/10/28 17:58:46;;;;;;;;;;;;;;;17.24;83.87;99869.34;8305930;28;19959;-76
2022/10/28 18:02:47;;;;;;;;;;;;;;;17.15;84.37;99874.81;8299569;28;19929;-76
2022/10/28 18:06:48;;;;;;;;;;;;;;;17.11;84.63;99873.16;8308400;28;20307;-77
2022/10/28 18:10:51;;;;;;;;;;;;;;;17.04;84.76;99874.19;8301810;28;19929;-76
2022/10/28 18:14:52;;;;;;;;;;;;;;;16.92;85.35;99883.22;8306986;28;19982;-76
2022/10/28 18:18:54;;;;;;;;;;;;;;;16.83;85.54;99878.16;8317720;28;19929;-76
2022/10/28 18:22:56;;;;;;;;;;;;;;;16.75;85.91;99874.84;8304312;28;19929;-76
2022/10/28 18:26:58;;;;;;;;;;;;;;;16.66;86.50;99888.13;8289649;28;19929;-78
2022/10/28 18:31:06;;;;;;;;;;;;;;;16.58;86.93;99894.41;8297062;28;19929;-78
2022/10/28 18:35:08;;;;;;;;;;;;;;;16.50;87.36;99890.19;8294725;28;20043;-77
2022/10/28 18:39:09;;;;;;;;;;;;;;;16.39;87.85;99894.81;8307691;28;19929;-77
2022/10/28 18:43:10;;;;;;;;;;;;;;;16.28;87.90;99895.00;8316664;28;19925;-77
2022/10/28 18:47:12;;;;;;;;;;;;;;;16.23;88.41;99891.63;8296258;28;20409;-77
2022/10/28 18:51:13;;;;;;;;;;;;;;;16.16;89.10;99888.25;8289113;28;19929;-77
2022/10/28 18:55:15;;;;;;;;;;;;;;;16.09;89.48;99888.38;8284885;28;19960;-78
2022/10/28 18:59:16;;;;;;;;;;;;;;;16.00;89.51;99890.31;8289765;28;19925;-77
2022/10/28 19:03:18;;;;;;;;;;;;;;;15.92;89.79;99894.78;8282335;28;19930;-77
2022/10/28 19:07:20;;;;;;;;;;;;;;;15.86;90.33;99894.06;8284456;28;19930;-77
2022/10/28 19:11:24;;;;;;;;;;;;;;;15.80;90.97;99897.66;8291984;28;20413;-77
2022/10/28 19:15:25;;;;;;;;;;;;;;;15.71;90.97;99895.19;8282560;28;20024;-78
2022/10/28 19:19:27;;;;;;;;;;;;;;;15.65;91.51;99892.69;8293410;28;20483;-77
2022/10/28 19:23:29;;;;;;;;;;;;;;;15.59;91.83;99903.22;8313641;28;20348;-77
2022/10/28 19:27:30;;;;;;;;;;;;;;;15.52;92.19;99905.06;8312525;28;19932;-78
2022/10/28 19:31:34;;;;;;;;;;;;;;;15.44;92.50;99899.09;8301287;28;19930;-77
2022/10/28 19:35:36;;;;;;;;;;;;;;;15.37;92.71;99894.84;8288347;28;19937;-77
2022/10/28 19:39:37;;;;;;;;;;;;;;;15.32;92.95;99884.44;8298911;28;19933;-77
2022/10/28 19:43:39;;;;;;;;;;;;;;;15.25;92.84;99893.25;8315645;28;19932;-78
2022/10/28 19:47:40;;;;;;;;;;;;;;;15.10;93.25;99899.63;8306534;28;19932;-78
2022/10/28 19:51:41;;;;;;;;;;;;;;;15.04;93.98;99898.81;8328761;28;20003;-77
2022/10/28 19:55:43;;;;;;;;;;;;;;;15.03;94.18;99904.94;8311388;28;19933;-77
2022/10/28 19:59:44;;;;;;;;;;;;;;;15.01;94.32;99919.78;8313160;28;19932;-77
2022/10/28 20:03:45;;;;;;;;;;;;;;;14.96;94.26;99914.63;8303615;28;19929;-77
2022/10/28 20:07:50;;;;;;;;;;;;;;;14.90;94.25;99916.44;8303124;28;19960;-77
2022/10/28 20:11:52;;;;;;;;;;;;;;;14.84;93.98;99927.84;8310486;28;19948;-76
2022/10/28 20:15:54;;;;;;;;;;;;;;;14.78;94.29;99930.56;8309197;28;19929;-76
2022/10/28 20:19:55;;;;;;;;;;;;;;;14.68;94.20;99939.41;8309134;28;19926;-76
2022/10/28 20:23:57;;;;;;;;;;;;;;;14.64;94.89;99940.31;8303204;28;19991;-76
2022/10/28 20:27:58;;;;;;;;;;;;;;;14.59;94.62;99949.97;8303285;28;19949;-77
2022/10/28 20:31:59;;;;;;;;;;;;;;;14.48;94.81;99960.53;8296125;28;20579;-78
2022/10/28 20:36:01;;;;;;;;;;;;;;;14.44;95.38;99967.56;8305675;28;19929;-78
2022/10/28 20:40:02;;;;;;;;;;;;;;;14.37;95.29;99967.63;8311821;28;19991;-77
2022/10/28 20:44:08;;;;;;;;;;;;;;;14.32;95.72;99972.84;8303361;28;20292;-77
2022/10/28 20:48:09;;;;;;;;;;;;;;;14.32;95.99;99983.31;8301894;28;19933;-77
2022/10/28 20:52:15;;;;;;;;;;;;;;;14.30;96.21;99986.81;8309386;28;19991;-77
2022/10/28 20:56:22;;;;;;;;;;;;;;;14.26;95.72;99990.34;8287351;28;19932;-77
2022/10/28 21:00:23;;;;;;;;;;;;;;;14.17;95.60;99993.91;8283134;28;19941;-77
2022/10/28 21:04:24;;;;;;;;;;;;;;;14.11;96.05;99991.34;8305504;28;20477;-77
2022/10/28 21:08:26;;;;;;;;;;;;;;;14.05;96.28;99973.16;8287999;28;20366;-77